sensor_id;sensor_type;location;lat;lon;timestamp;temperature;humidity
14142;DHT22;7151;52.246;4.820;2022-10-16T00:02:24;17.80;85.20
14142;DHT22;7151;52.246;4.820;2022-10-16T00:04:50;17.70;85.00
14142;DHT22;7151;52.246;4.820;2022-10-16T00:07:15;17.80;85.00
14142;DHT22;7151;52.246;4.820;2022-10-16T00:09:41;17.80;84.80
14142;DHT22;7151;52.246;4.820;2022-10-16T00:12:06;17.70;84.60
14142;DHT22;7151;52.246;4.820;2022-10-16T00:14:32;17.70;84.50
14142;DHT22;7151;52.246;4.820;2022-10-16T00:16:58;17.80;84.50
14142;DHT22;7151;52.246;4.820;2022-10-16T00:19:24;17.70;84.30
14142;DHT22;7151;52.246;4.820;2022-10-16T00:21:49;17.70;84.30
14142;DHT22;7151;52.246;4.820;2022-10-16T00:24:15;17.70;84.30
14142;DHT22;7151;52.246;4.820;2022-10-16T00:26:41;17.70;84.40
14142;DHT22;7151;52.246;4.820;2022-10-16T00:29:07;17.70;84.30
14142;DHT22;7151;52.246;4.820;2022-10-16T00:31:33;17.60;84.20
14142;DHT22;7151;52.246;4.820;2022-10-16T00:33:58;17.60;84.00
14142;DHT22;7151;52.246;4.820;2022-10-16T00:36:26;17.60;84.10
14142;DHT22;7151;52.246;4.820;2022-10-16T00:38:56;17.60;84.00
14142;DHT22;7151;52.246;4.820;2022-10-16T00:41:25;17.60;84.10
14142;DHT22;7151;52.246;4.820;2022-10-16T00:43:57;17.60;84.00
14142;DHT22;7151;52.246;4.820;2022-10-16T00:46:25;17.60;83.90
14142;DHT22;7151;52.246;4.820;2022-10-16T00:49:13;17.60;84.00
14142;DHT22;7151;52.246;4.820;2022-10-16T00:54:13;17.60;83.80
14142;DHT22;7151;52.246;4.820;2022-10-16T00:56:40;17.60;83.70
14142;DHT22;7151;52.246;4.820;2022-10-16T00:59:19;17.60;83.70
14142;DHT22;7151;52.246;4.820;2022-10-16T01:01:45;17.50;83.60
14142;DHT22;7151;52.246;4.820;2022-10-16T01:04:11;17.50;83.70
14142;DHT22;7151;52.246;4.820;2022-10-16T01:06:51;17.50;83.70
14142;DHT22;7151;52.246;4.820;2022-10-16T01:10:21;17.50;83.50
14142;DHT22;7151;52.246;4.820;2022-10-16T01:12:36;17.50;83.60
14142;DHT22;7151;52.246;4.820;2022-10-16T01:15:06;17.50;83.70
14142;DHT22;7151;52.246;4.820;2022-10-16T01:17:43;17.50;83.80
14142;DHT22;7151;52.246;4.820;2022-10-16T01:23:20;17.50;83.80
14142;DHT22;7151;52.246;4.820;2022-10-16T01:31:11;17.60;83.90
14142;DHT22;7151;52.246;4.820;2022-10-16T01:33:46;17.60;83.80
14142;DHT22;7151;52.246;4.820;2022-10-16T01:36:21;17.60;83.90
14142;DHT22;7151;52.246;4.820;2022-10-16T01:38:50;17.50;83.80
14142;DHT22;7151;52.246;4.820;2022-10-16T01:41:27;17.60;84.00
14142;DHT22;7151;52.246;4.820;2022-10-16T01:44:08;17.50;84.00
14142;DHT22;7151;52.246;4.820;2022-10-16T01:46:39;17.50;84.10
14142;DHT22;7151;52.246;4.820;2022-10-16T01:49:06;17.50;84.20
14142;DHT22;7151;52.246;4.820;2022-10-16T01:51:34;17.50;84.20
14142;DHT22;7151;52.246;4.820;2022-10-16T01:54:01;17.50;84.30
14142;DHT22;7151;52.246;4.820;2022-10-16T01:56:28;17.50;84.40
14142;DHT22;7151;52.246;4.820;2022-10-16T01:59:08;17.40;84.40
14142;DHT22;7151;52.246;4.820;2022-10-16T02:01:38;17.40;84.50
14142;DHT22;7151;52.246;4.820;2022-10-16T02:04:24;17.40;84.60
14142;DHT22;7151;52.246;4.820;2022-10-16T02:06:52;17.40;84.70
14142;DHT22;7151;52.246;4.820;2022-10-16T02:09:18;17.40;84.90
14142;DHT22;7151;52.246;4.820;2022-10-16T02:11:44;17.40;85.00
14142;DHT22;7151;52.246;4.820;2022-10-16T02:14:10;17.40;85.20
14142;DHT22;7151;52.246;4.820;2022-10-16T02:16:39;17.30;85.20
14142;DHT22;7151;52.246;4.820;2022-10-16T02:19:05;17.30;85.40
14142;DHT22;7151;52.246;4.820;2022-10-16T02:21:42;17.30;85.50
14142;DHT22;7151;52.246;4.820;2022-10-16T02:27:00;17.30;85.70
14142;DHT22;7151;52.246;4.820;2022-10-16T02:29:27;17.30;85.90
14142;DHT22;7151;52.246;4.820;2022-10-16T02:32:00;17.30;85.90
14142;DHT22;7151;52.246;4.820;2022-10-16T02:34:27;17.30;86.10
14142;DHT22;7151;52.246;4.820;2022-10-16T02:36:56;17.30;86.20
14142;DHT22;7151;52.246;4.820;2022-10-16T02:39:22;17.30;86.20
14142;DHT22;7151;52.246;4.820;2022-10-16T02:41:48;17.20;86.20
14142;DHT22;7151;52.246;4.820;2022-10-16T02:44:14;17.20;86.30
14142;DHT22;7151;52.246;4.820;2022-10-16T02:46:40;17.30;86.50
14142;DHT22;7151;52.246;4.820;2022-10-16T02:49:05;17.20;87.10
14142;DHT22;7151;52.246;4.820;2022-10-16T02:51:31;17.20;86.50
14142;DHT22;7151;52.246;4.820;2022-10-16T02:53:56;17.20;86.50
14142;DHT22;7151;52.246;4.820;2022-10-16T02:56:22;17.20;86.50
14142;DHT22;7151;52.246;4.820;2022-10-16T02:58:47;17.20;86.50
14142;DHT22;7151;52.246;4.820;2022-10-16T03:01:13;17.20;86.60
14142;DHT22;7151;52.246;4.820;2022-10-16T03:03:39;17.20;86.70
14142;DHT22;7151;52.246;4.820;2022-10-16T03:06:05;17.20;86.70
14142;DHT22;7151;52.246;4.820;2022-10-16T03:08:31;17.20;86.80
14142;DHT22;7151;52.246;4.820;2022-10-16T03:10:57;17.20;86.90
14142;DHT22;7151;52.246;4.820;2022-10-16T03:13:22;17.20;87.00
14142;DHT22;7151;52.246;4.820;2022-10-16T03:15:48;17.20;87.00
14142;DHT22;7151;52.246;4.820;2022-10-16T03:18:14;17.10;87.00
14142;DHT22;7151;52.246;4.820;2022-10-16T03:20:40;17.20;87.00
14142;DHT22;7151;52.246;4.820;2022-10-16T03:23:05;17.10;87.00
14142;DHT22;7151;52.246;4.820;2022-10-16T03:25:33;17.10;87.00
14142;DHT22;7151;52.246;4.820;2022-10-16T03:27:59;17.10;87.00
14142;DHT22;7151;52.246;4.820;2022-10-16T03:30:24;17.10;87.00
14142;DHT22;7151;52.246;4.820;2022-10-16T03:32:50;17.10;87.00
14142;DHT22;7151;52.246;4.820;2022-10-16T03:35:19;17.10;87.00
14142;DHT22;7151;52.246;4.820;2022-10-16T03:37:45;17.10;87.00
14142;DHT22;7151;52.246;4.820;2022-10-16T03:40:10;17.10;87.00
14142;DHT22;7151;52.246;4.820;2022-10-16T03:42:36;17.10;87.00
14142;DHT22;7151;52.246;4.820;2022-10-16T03:45:02;17.10;87.10
14142;DHT22;7151;52.246;4.820;2022-10-16T03:47:27;17.10;87.10
14142;DHT22;7151;52.246;4.820;2022-10-16T03:49:53;17.00;87.10
14142;DHT22;7151;52.246;4.820;2022-10-16T03:52:18;17.00;87.30
14142;DHT22;7151;52.246;4.820;2022-10-16T03:54:44;17.00;87.10
14142;DHT22;7151;52.246;4.820;2022-10-16T03:57:09;17.00;87.10
14142;DHT22;7151;52.246;4.820;2022-10-16T03:59:35;17.00;87.30
14142;DHT22;7151;52.246;4.820;2022-10-16T04:02:01;17.00;87.30
14142;DHT22;7151;52.246;4.820;2022-10-16T04:04:26;17.00;87.40
14142;DHT22;7151;52.246;4.820;2022-10-16T04:06:52;16.90;87.40
14142;DHT22;7151;52.246;4.820;2022-10-16T04:09:17;16.90;87.50
14142;DHT22;7151;52.246;4.820;2022-10-16T04:11:43;16.90;87.60
14142;DHT22;7151;52.246;4.820;2022-10-16T04:14:08;16.90;87.70
14142;DHT22;7151;52.246;4.820;2022-10-16T04:16:34;16.90;87.70
14142;DHT22;7151;52.246;4.820;2022-10-16T04:19:00;17.00;87.80
14142;DHT22;7151;52.246;4.820;2022-10-16T04:21:25;16.90;87.80
14142;DHT22;7151;52.246;4.820;2022-10-16T04:23:51;16.90;87.80
14142;DHT22;7151;52.246;4.820;2022-10-16T04:26:16;16.90;87.80
14142;DHT22;7151;52.246;4.820;2022-10-16T04:28:42;17.00;88.00
14142;DHT22;7151;52.246;4.820;2022-10-16T04:31:08;16.90;88.00
14142;DHT22;7151;52.246;4.820;2022-10-16T04:33:34;17.00;88.10
14142;DHT22;7151;52.246;4.820;2022-10-16T04:36:01;17.00;88.00
14142;DHT22;7151;52.246;4.820;2022-10-16T04:38:27;17.00;88.00
14142;DHT22;7151;52.246;4.820;2022-10-16T04:40:53;17.00;88.00
14142;DHT22;7151;52.246;4.820;2022-10-16T04:43:19;17.00;88.00
14142;DHT22;7151;52.246;4.820;2022-10-16T04:45:44;17.00;88.70
14142;DHT22;7151;52.246;4.820;2022-10-16T04:48:10;16.90;87.90
14142;DHT22;7151;52.246;4.820;2022-10-16T04:50:35;17.00;88.10
14142;DHT22;7151;52.246;4.820;2022-10-16T04:53:01;16.90;88.10
14142;DHT22;7151;52.246;4.820;2022-10-16T04:55:27;17.00;88.20
14142;DHT22;7151;52.246;4.820;2022-10-16T04:57:52;16.90;88.20
14142;DHT22;7151;52.246;4.820;2022-10-16T05:00:18;16.90;88.30
14142;DHT22;7151;52.246;4.820;2022-10-16T05:02:43;16.90;88.30
14142;DHT22;7151;52.246;4.820;2022-10-16T05:05:09;16.90;88.40
14142;DHT22;7151;52.246;4.820;2022-10-16T05:07:34;17.00;88.60
14142;DHT22;7151;52.246;4.820;2022-10-16T05:10:00;17.00;88.60
14142;DHT22;7151;52.246;4.820;2022-10-16T05:12:25;17.00;88.70
14142;DHT22;7151;52.246;4.820;2022-10-16T05:14:51;17.00;88.70
14142;DHT22;7151;52.246;4.820;2022-10-16T05:17:16;17.00;88.80
14142;DHT22;7151;52.246;4.820;2022-10-16T05:19:42;17.00;88.80
14142;DHT22;7151;52.246;4.820;2022-10-16T05:22:07;17.00;89.00
14142;DHT22;7151;52.246;4.820;2022-10-16T05:24:33;17.00;89.00
14142;DHT22;7151;52.246;4.820;2022-10-16T05:26:58;17.00;89.10
14142;DHT22;7151;52.246;4.820;2022-10-16T05:29:24;17.00;89.20
14142;DHT22;7151;52.246;4.820;2022-10-16T05:31:53;17.00;89.30
14142;DHT22;7151;52.246;4.820;2022-10-16T05:34:19;17.00;89.50
14142;DHT22;7151;52.246;4.820;2022-10-16T05:36:44;17.00;89.60
14142;DHT22;7151;52.246;4.820;2022-10-16T05:39:11;17.00;89.70
14142;DHT22;7151;52.246;4.820;2022-10-16T05:41:36;17.00;89.80
14142;DHT22;7151;52.246;4.820;2022-10-16T05:44:05;17.00;89.90
14142;DHT22;7151;52.246;4.820;2022-10-16T05:46:32;16.90;89.90
14142;DHT22;7151;52.246;4.820;2022-10-16T05:48:58;16.90;90.00
14142;DHT22;7151;52.246;4.820;2022-10-16T05:51:23;17.00;90.00
14142;DHT22;7151;52.246;4.820;2022-10-16T05:53:49;16.90;90.00
14142;DHT22;7151;52.246;4.820;2022-10-16T05:56:15;16.90;90.10
14142;DHT22;7151;52.246;4.820;2022-10-16T05:58:41;17.00;90.20
14142;DHT22;7151;52.246;4.820;2022-10-16T06:01:12;16.90;90.20
14142;DHT22;7151;52.246;4.820;2022-10-16T06:03:39;16.90;90.30
14142;DHT22;7151;52.246;4.820;2022-10-16T06:06:22;16.90;90.40
14142;DHT22;7151;52.246;4.820;2022-10-16T06:08:49;16.90;90.50
14142;DHT22;7151;52.246;4.820;2022-10-16T06:11:17;16.90;90.50
14142;DHT22;7151;52.246;4.820;2022-10-16T06:13:43;16.90;90.50
14142;DHT22;7151;52.246;4.820;2022-10-16T06:16:12;16.90;90.60
14142;DHT22;7151;52.246;4.820;2022-10-16T06:18:37;16.90;90.60
14142;DHT22;7151;52.246;4.820;2022-10-16T06:21:08;16.90;90.70
14142;DHT22;7151;52.246;4.820;2022-10-16T06:23:34;16.90;90.80
14142;DHT22;7151;52.246;4.820;2022-10-16T06:26:08;16.90;90.80
14142;DHT22;7151;52.246;4.820;2022-10-16T06:28:34;16.90;90.90
14142;DHT22;7151;52.246;4.820;2022-10-16T06:31:00;16.90;90.90
14142;DHT22;7151;52.246;4.820;2022-10-16T06:33:26;16.90;90.90
14142;DHT22;7151;52.246;4.820;2022-10-16T06:35:52;16.90;90.90
14142;DHT22;7151;52.246;4.820;2022-10-16T06:38:17;16.80;90.90
14142;DHT22;7151;52.246;4.820;2022-10-16T06:40:43;16.90;91.00
14142;DHT22;7151;52.246;4.820;2022-10-16T06:43:09;16.80;91.00
14142;DHT22;7151;52.246;4.820;2022-10-16T06:45:34;16.90;91.00
14142;DHT22;7151;52.246;4.820;2022-10-16T06:48:00;16.80;91.40
14142;DHT22;7151;52.246;4.820;2022-10-16T06:50:25;16.90;91.10
14142;DHT22;7151;52.246;4.820;2022-10-16T06:52:51;16.90;91.10
14142;DHT22;7151;52.246;4.820;2022-10-16T06:55:16;16.90;91.20
14142;DHT22;7151;52.246;4.820;2022-10-16T06:57:43;16.90;91.20
14142;DHT22;7151;52.246;4.820;2022-10-16T07:00:09;16.90;91.50
14142;DHT22;7151;52.246;4.820;2022-10-16T07:02:35;16.90;91.20
14142;DHT22;7151;52.246;4.820;2022-10-16T07:05:00;16.90;91.20
14142;DHT22;7151;52.246;4.820;2022-10-16T07:07:26;16.90;91.20
14142;DHT22;7151;52.246;4.820;2022-10-16T07:09:52;16.90;91.20
14142;DHT22;7151;52.246;4.820;2022-10-16T07:12:17;16.90;91.10
14142;DHT22;7151;52.246;4.820;2022-10-16T07:14:43;16.90;91.10
14142;DHT22;7151;52.246;4.820;2022-10-16T07:17:09;16.90;91.20
14142;DHT22;7151;52.246;4.820;2022-10-16T07:19:34;16.90;91.20
14142;DHT22;7151;52.246;4.820;2022-10-16T07:22:00;16.90;91.10
14142;DHT22;7151;52.246;4.820;2022-10-16T07:24:26;16.90;91.10
14142;DHT22;7151;52.246;4.820;2022-10-16T07:26:52;16.80;91.10
14142;DHT22;7151;52.246;4.820;2022-10-16T07:29:20;16.90;91.10
14142;DHT22;7151;52.246;4.820;2022-10-16T07:31:46;16.90;91.00
14142;DHT22;7151;52.246;4.820;2022-10-16T07:34:14;16.90;91.00
14142;DHT22;7151;52.246;4.820;2022-10-16T07:36:40;16.90;91.00
14142;DHT22;7151;52.246;4.820;2022-10-16T07:39:05;16.90;91.00
14142;DHT22;7151;52.246;4.820;2022-10-16T07:41:31;16.90;91.00
14142;DHT22;7151;52.246;4.820;2022-10-16T07:43:58;16.90;91.00
14142;DHT22;7151;52.246;4.820;2022-10-16T07:46:27;16.90;91.00
14142;DHT22;7151;52.246;4.820;2022-10-16T07:48:53;16.90;91.10
14142;DHT22;7151;52.246;4.820;2022-10-16T07:51:21;16.90;91.10
14142;DHT22;7151;52.246;4.820;2022-10-16T07:53:47;16.90;91.10
14142;DHT22;7151;52.246;4.820;2022-10-16T07:56:13;16.90;91.10
14142;DHT22;7151;52.246;4.820;2022-10-16T07:58:39;17.00;91.20
14142;DHT22;7151;52.246;4.820;2022-10-16T08:01:06;17.00;91.20
14142;DHT22;7151;52.246;4.820;2022-10-16T08:03:33;17.00;91.20
14142;DHT22;7151;52.246;4.820;2022-10-16T08:05:59;17.00;91.20
14142;DHT22;7151;52.246;4.820;2022-10-16T08:08:25;17.10;91.30
14142;DHT22;7151;52.246;4.820;2022-10-16T08:10:51;17.10;91.30
14142;DHT22;7151;52.246;4.820;2022-10-16T08:13:17;17.10;91.30
14142;DHT22;7151;52.246;4.820;2022-10-16T08:15:43;17.10;91.30
14142;DHT22;7151;52.246;4.820;2022-10-16T08:18:10;17.20;91.30
14142;DHT22;7151;52.246;4.820;2022-10-16T08:20:35;17.20;91.40
14142;DHT22;7151;52.246;4.820;2022-10-16T08:23:01;17.20;91.30
14142;DHT22;7151;52.246;4.820;2022-10-16T08:25:27;17.20;91.40
14142;DHT22;7151;52.246;4.820;2022-10-16T08:27:53;17.20;91.50
14142;DHT22;7151;52.246;4.820;2022-10-16T08:30:20;17.20;91.50
14142;DHT22;7151;52.246;4.820;2022-10-16T08:32:46;17.30;91.50
14142;DHT22;7151;52.246;4.820;2022-10-16T08:35:12;17.30;91.60
14142;DHT22;7151;52.246;4.820;2022-10-16T08:37:39;17.40;91.60
14142;DHT22;7151;52.246;4.820;2022-10-16T08:40:06;17.40;91.60
14142;DHT22;7151;52.246;4.820;2022-10-16T08:43:19;17.50;91.60
14142;DHT22;7151;52.246;4.820;2022-10-16T08:48:50;17.50;91.60
14142;DHT22;7151;52.246;4.820;2022-10-16T08:51:36;17.60;91.50
14142;DHT22;7151;52.246;4.820;2022-10-16T08:54:23;17.60;91.50
14142;DHT22;7151;52.246;4.820;2022-10-16T08:56:50;17.60;91.40
14142;DHT22;7151;52.246;4.820;2022-10-16T08:59:16;17.70;91.50
14142;DHT22;7151;52.246;4.820;2022-10-16T09:01:46;17.70;91.40
14142;DHT22;7151;52.246;4.820;2022-10-16T09:07:27;17.80;91.40
14142;DHT22;7151;52.246;4.820;2022-10-16T09:10:02;17.80;91.30
14142;DHT22;7151;52.246;4.820;2022-10-16T09:15:36;17.90;91.30
14142;DHT22;7151;52.246;4.820;2022-10-16T09:18:11;18.00;91.30
14142;DHT22;7151;52.246;4.820;2022-10-16T09:23:19;18.10;91.20
14142;DHT22;7151;52.246;4.820;2022-10-16T09:25:47;18.10;91.20
14142;DHT22;7151;52.246;4.820;2022-10-16T09:28:15;18.20;91.10
14142;DHT22;7151;52.246;4.820;2022-10-16T09:30:40;18.20;91.00
14142;DHT22;7151;52.246;4.820;2022-10-16T09:33:08;18.30;91.00
14142;DHT22;7151;52.246;4.820;2022-10-16T09:35:40;18.30;90.90
14142;DHT22;7151;52.246;4.820;2022-10-16T09:38:07;18.40;90.90
14142;DHT22;7151;52.246;4.820;2022-10-16T09:40:35;18.40;90.80
14142;DHT22;7151;52.246;4.820;2022-10-16T09:43:08;18.50;90.80
14142;DHT22;7151;52.246;4.820;2022-10-16T09:45:37;18.50;90.70
14142;DHT22;7151;52.246;4.820;2022-10-16T09:48:11;18.60;90.80
14142;DHT22;7151;52.246;4.820;2022-10-16T09:50:37;18.60;90.50
14142;DHT22;7151;52.246;4.820;2022-10-16T09:53:14;18.60;90.40
14142;DHT22;7151;52.246;4.820;2022-10-16T09:55:50;18.70;90.30
14142;DHT22;7151;52.246;4.820;2022-10-16T09:58:15;18.70;90.30
14142;DHT22;7151;52.246;4.820;2022-10-16T10:00:42;18.70;90.20
14142;DHT22;7151;52.246;4.820;2022-10-16T10:03:39;18.70;90.10
14142;DHT22;7151;52.246;4.820;2022-10-16T10:06:27;18.80;90.10
14142;DHT22;7151;52.246;4.820;2022-10-16T10:11:40;18.80;90.10
14142;DHT22;7151;52.246;4.820;2022-10-16T10:16:41;19.00;90.50
14142;DHT22;7151;52.246;4.820;2022-10-16T10:19:17;19.10;90.60
14142;DHT22;7151;52.246;4.820;2022-10-16T10:21:43;19.20;90.60
14142;DHT22;7151;52.246;4.820;2022-10-16T10:24:14;19.30;90.40
14142;DHT22;7151;52.246;4.820;2022-10-16T10:27:05;19.40;90.40
14142;DHT22;7151;52.246;4.820;2022-10-16T10:30:22;19.50;90.40
14142;DHT22;7151;52.246;4.820;2022-10-16T10:38:54;20.00;90.10
14142;DHT22;7151;52.246;4.820;2022-10-16T10:52:50;20.50;88.70
14142;DHT22;7151;52.246;4.820;2022-10-16T10:55:39;20.70;88.80
14142;DHT22;7151;52.246;4.820;2022-10-16T11:01:01;20.80;88.70
14142;DHT22;7151;52.246;4.820;2022-10-16T11:06:08;21.00;88.60
14142;DHT22;7151;52.246;4.820;2022-10-16T11:08:49;21.10;88.20
14142;DHT22;7151;52.246;4.820;2022-10-16T11:12:33;21.20;88.20
14142;DHT22;7151;52.246;4.820;2022-10-16T11:17:19;21.40;86.40
14142;DHT22;7151;52.246;4.820;2022-10-16T11:19:51;21.50;85.60
14142;DHT22;7151;52.246;4.820;2022-10-16T11:22:39;21.60;85.30
14142;DHT22;7151;52.246;4.820;2022-10-16T11:25:14;21.60;85.10
14142;DHT22;7151;52.246;4.820;2022-10-16T11:30:25;21.70;83.40
14142;DHT22;7151;52.246;4.820;2022-10-16T11:33:24;21.80;82.50
14142;DHT22;7151;52.246;4.820;2022-10-16T11:35:57;21.90;81.70
14142;DHT22;7151;52.246;4.820;2022-10-16T11:38:42;21.90;81.00
14142;DHT22;7151;52.246;4.820;2022-10-16T11:41:26;22.00;80.20
14142;DHT22;7151;52.246;4.820;2022-10-16T11:44:20;22.00;79.40
14142;DHT22;7151;52.246;4.820;2022-10-16T11:46:48;22.00;78.40
14142;DHT22;7151;52.246;4.820;2022-10-16T11:49:21;22.10;77.50
14142;DHT22;7151;52.246;4.820;2022-10-16T11:54:35;22.10;76.30
14142;DHT22;7151;52.246;4.820;2022-10-16T11:57:32;22.10;76.90
14142;DHT22;7151;52.246;4.820;2022-10-16T12:00:04;22.20;76.00
14142;DHT22;7151;52.246;4.820;2022-10-16T12:08:14;22.30;75.10
14142;DHT22;7151;52.246;4.820;2022-10-16T12:10:43;22.40;75.30
14142;DHT22;7151;52.246;4.820;2022-10-16T12:16:05;22.40;74.00
14142;DHT22;7151;52.246;4.820;2022-10-16T12:18:30;22.50;73.70
14142;DHT22;7151;52.246;4.820;2022-10-16T12:20:59;22.50;74.00
14142;DHT22;7151;52.246;4.820;2022-10-16T12:23:32;22.50;73.70
14142;DHT22;7151;52.246;4.820;2022-10-16T12:25:59;22.50;73.60
14142;DHT22;7151;52.246;4.820;2022-10-16T12:28:32;22.50;73.60
14142;DHT22;7151;52.246;4.820;2022-10-16T12:31:03;22.60;73.50
14142;DHT22;7151;52.246;4.820;2022-10-16T12:33:31;22.60;73.50
14142;DHT22;7151;52.246;4.820;2022-10-16T12:35:59;22.70;73.00
14142;DHT22;7151;52.246;4.820;2022-10-16T12:38:29;22.70;72.50
14142;DHT22;7151;52.246;4.820;2022-10-16T12:41:07;22.80;72.60
14142;DHT22;7151;52.246;4.820;2022-10-16T12:43:45;22.80;72.20
14142;DHT22;7151;52.246;4.820;2022-10-16T12:48:38;22.80;71.50
14142;DHT22;7151;52.246;4.820;2022-10-16T12:54:04;22.90;69.90
14142;DHT22;7151;52.246;4.820;2022-10-16T12:56:45;22.90;70.30
14142;DHT22;7151;52.246;4.820;2022-10-16T12:59:38;22.90;69.80
14142;DHT22;7151;52.246;4.820;2022-10-16T13:02:28;22.90;69.70
14142;DHT22;7151;52.246;4.820;2022-10-16T13:10:23;22.80;67.50
14142;DHT22;7151;52.246;4.820;2022-10-16T13:13:12;22.80;67.10
14142;DHT22;7151;52.246;4.820;2022-10-16T13:21:03;22.40;66.50
14142;DHT22;7151;52.246;4.820;2022-10-16T13:26:37;22.20;66.00
14142;DHT22;7151;52.246;4.820;2022-10-16T13:29:04;22.10;66.30
14142;DHT22;7151;52.246;4.820;2022-10-16T13:31:30;22.10;66.40
14142;DHT22;7151;52.246;4.820;2022-10-16T13:33:58;22.00;66.00
14142;DHT22;7151;52.246;4.820;2022-10-16T13:36:25;22.00;66.00
14142;DHT22;7151;52.246;4.820;2022-10-16T13:39:14;21.90;65.90
14142;DHT22;7151;52.246;4.820;2022-10-16T13:41:40;21.80;65.30
14142;DHT22;7151;52.246;4.820;2022-10-16T13:44:19;21.80;65.60
14142;DHT22;7151;52.246;4.820;2022-10-16T13:46:45;21.80;65.60
14142;DHT22;7151;52.246;4.820;2022-10-16T13:49:16;21.70;66.00
14142;DHT22;7151;52.246;4.820;2022-10-16T13:51:54;21.70;65.90
14142;DHT22;7151;52.246;4.820;2022-10-16T13:54:20;21.70;65.60
14142;DHT22;7151;52.246;4.820;2022-10-16T13:56:45;21.60;65.70
14142;DHT22;7151;52.246;4.820;2022-10-16T13:59:25;21.60;65.60
14142;DHT22;7151;52.246;4.820;2022-10-16T14:01:54;21.60;65.20
14142;DHT22;7151;52.246;4.820;2022-10-16T14:04:21;21.60;65.20
14142;DHT22;7151;52.246;4.820;2022-10-16T14:06:50;21.60;65.50
14142;DHT22;7151;52.246;4.820;2022-10-16T14:11:48;21.60;65.40
14142;DHT22;7151;52.246;4.820;2022-10-16T14:14:15;21.60;65.50
14142;DHT22;7151;52.246;4.820;2022-10-16T14:16:42;21.60;65.70
14142;DHT22;7151;52.246;4.820;2022-10-16T14:19:21;21.60;65.90
14142;DHT22;7151;52.246;4.820;2022-10-16T14:21:49;21.60;66.10
14142;DHT22;7151;52.246;4.820;2022-10-16T14:24:32;21.60;66.40
14142;DHT22;7151;52.246;4.820;2022-10-16T14:26:59;21.60;67.80
14142;DHT22;7151;52.246;4.820;2022-10-16T14:29:27;21.60;68.50
14142;DHT22;7151;52.246;4.820;2022-10-16T14:32:01;21.60;68.60
14142;DHT22;7151;52.246;4.820;2022-10-16T14:34:32;21.70;69.30
14142;DHT22;7151;52.246;4.820;2022-10-16T14:37:01;21.80;69.80
14142;DHT22;7151;52.246;4.820;2022-10-16T14:39:32;21.90;70.20
14142;DHT22;7151;52.246;4.820;2022-10-16T14:41:58;21.90;69.90
14142;DHT22;7151;52.246;4.820;2022-10-16T14:44:29;22.00;69.50
14142;DHT22;7151;52.246;4.820;2022-10-16T14:46:56;22.00;69.10
14142;DHT22;7151;52.246;4.820;2022-10-16T14:49:23;22.00;69.00
14142;DHT22;7151;52.246;4.820;2022-10-16T14:51:49;22.10;68.90
14142;DHT22;7151;52.246;4.820;2022-10-16T14:54:17;22.10;68.70
14142;DHT22;7151;52.246;4.820;2022-10-16T14:56:50;22.10;68.60
14142;DHT22;7151;52.246;4.820;2022-10-16T14:59:27;22.10;68.40
14142;DHT22;7151;52.246;4.820;2022-10-16T15:01:53;22.20;68.30
14142;DHT22;7151;52.246;4.820;2022-10-16T15:04:19;22.20;68.30
14142;DHT22;7151;52.246;4.820;2022-10-16T15:06:44;22.20;68.20
14142;DHT22;7151;52.246;4.820;2022-10-16T15:09:10;22.20;68.20
14142;DHT22;7151;52.246;4.820;2022-10-16T15:11:36;22.30;68.20
14142;DHT22;7151;52.246;4.820;2022-10-16T15:14:02;22.20;68.00
14142;DHT22;7151;52.246;4.820;2022-10-16T15:16:28;22.30;67.90
14142;DHT22;7151;52.246;4.820;2022-10-16T15:18:54;22.30;67.80
14142;DHT22;7151;52.246;4.820;2022-10-16T15:21:31;22.30;67.80
14142;DHT22;7151;52.246;4.820;2022-10-16T15:23:58;22.30;67.70
14142;DHT22;7151;52.246;4.820;2022-10-16T15:26:25;22.30;67.80
14142;DHT22;7151;52.246;4.820;2022-10-16T15:28:51;22.30;67.90
14142;DHT22;7151;52.246;4.820;2022-10-16T15:31:17;22.30;68.00
14142;DHT22;7151;52.246;4.820;2022-10-16T15:33:42;22.30;68.00
14142;DHT22;7151;52.246;4.820;2022-10-16T15:36:08;22.30;68.00
14142;DHT22;7151;52.246;4.820;2022-10-16T15:38:35;22.20;67.80
14142;DHT22;7151;52.246;4.820;2022-10-16T15:41:00;22.20;67.80
14142;DHT22;7151;52.246;4.820;2022-10-16T15:43:26;22.10;67.80
14142;DHT22;7151;52.246;4.820;2022-10-16T15:46:12;22.10;68.00
14142;DHT22;7151;52.246;4.820;2022-10-16T15:48:39;22.00;68.00
14142;DHT22;7151;52.246;4.820;2022-10-16T15:51:06;21.90;68.20
14142;DHT22;7151;52.246;4.820;2022-10-16T15:53:32;21.80;68.40
14142;DHT22;7151;52.246;4.820;2022-10-16T15:56:04;21.70;68.70
14142;DHT22;7151;52.246;4.820;2022-10-16T15:58:30;21.60;68.90
14142;DHT22;7151;52.246;4.820;2022-10-16T16:00:57;21.50;69.10
14142;DHT22;7151;52.246;4.820;2022-10-16T16:03:25;21.40;69.30
14142;DHT22;7151;52.246;4.820;2022-10-16T16:05:51;21.30;69.50
14142;DHT22;7151;52.246;4.820;2022-10-16T16:08:17;21.30;69.70
14142;DHT22;7151;52.246;4.820;2022-10-16T16:10:42;21.20;70.00
14142;DHT22;7151;52.246;4.820;2022-10-16T16:13:08;21.20;70.20
14142;DHT22;7151;52.246;4.820;2022-10-16T16:15:34;21.10;70.30
14142;DHT22;7151;52.246;4.820;2022-10-16T16:17:59;21.10;70.60
14142;DHT22;7151;52.246;4.820;2022-10-16T16:20:27;21.00;70.80
14142;DHT22;7151;52.246;4.820;2022-10-16T16:22:52;20.90;71.00
14142;DHT22;7151;52.246;4.820;2022-10-16T16:25:18;20.90;71.30
14142;DHT22;7151;52.246;4.820;2022-10-16T16:27:44;20.90;71.60
14142;DHT22;7151;52.246;4.820;2022-10-16T16:30:11;20.80;71.80
14142;DHT22;7151;52.246;4.820;2022-10-16T16:32:36;20.80;71.90
14142;DHT22;7151;52.246;4.820;2022-10-16T16:35:03;20.70;71.90
14142;DHT22;7151;52.246;4.820;2022-10-16T16:37:29;20.70;72.10
14142;DHT22;7151;52.246;4.820;2022-10-16T16:39:54;20.70;72.30
14142;DHT22;7151;52.246;4.820;2022-10-16T16:42:26;20.70;72.40
14142;DHT22;7151;52.246;4.820;2022-10-16T16:44:52;20.60;72.40
14142;DHT22;7151;52.246;4.820;2022-10-16T16:47:18;20.60;72.70
14142;DHT22;7151;52.246;4.820;2022-10-16T16:49:43;20.50;73.50
14142;DHT22;7151;52.246;4.820;2022-10-16T16:52:09;20.50;73.00
14142;DHT22;7151;52.246;4.820;2022-10-16T16:54:35;20.50;73.10
14142;DHT22;7151;52.246;4.820;2022-10-16T16:57:00;20.50;73.40
14142;DHT22;7151;52.246;4.820;2022-10-16T16:59:26;20.40;73.50
14142;DHT22;7151;52.246;4.820;2022-10-16T17:01:52;20.40;73.60
14142;DHT22;7151;52.246;4.820;2022-10-16T17:04:17;20.40;73.70
14142;DHT22;7151;52.246;4.820;2022-10-16T17:06:44;20.40;73.90
14142;DHT22;7151;52.246;4.820;2022-10-16T17:09:10;20.40;73.90
14142;DHT22;7151;52.246;4.820;2022-10-16T17:11:38;20.30;73.80
14142;DHT22;7151;52.246;4.820;2022-10-16T17:14:07;20.40;73.90
14142;DHT22;7151;52.246;4.820;2022-10-16T17:16:35;20.30;73.80
14142;DHT22;7151;52.246;4.820;2022-10-16T17:19:02;20.30;73.80
14142;DHT22;7151;52.246;4.820;2022-10-16T17:21:28;20.30;73.80
14142;DHT22;7151;52.246;4.820;2022-10-16T17:23:56;20.30;73.80
14142;DHT22;7151;52.246;4.820;2022-10-16T17:26:22;20.30;73.80
14142;DHT22;7151;52.246;4.820;2022-10-16T17:28:52;20.30;73.80
14142;DHT22;7151;52.246;4.820;2022-10-16T17:31:21;20.30;74.00